Time;durP1;ratioP1;P1;durP2;ratioP2;P2;SDS_P1;SDS_P2;PMS_P1;PMS_P2;Temp;Humidity;BMP_temperature;BMP_pressure;BME280_temperature;BME280_humidity;BME280_pressure;Samples;Min_cycle;Max_cycle;Signal;HPM_P1;HPM_P2
2021/10/01 00:02:12;;;;;;;6.97;1.80;;;;;;;;;;5035115;28;20327;-82
2021/10/01 00:04:41;;;;;;;6.88;1.73;;;;;;;;;;5050064;28;20110;-82
2021/10/01 00:07:09;;;;;;;7.82;1.65;;;;;;;;;;5035198;28;20053;-82
2021/10/01 00:09:36;;;;;;;8.40;1.67;;;;;;;;;;5038817;28;20046;-82
2021/10/01 00:12:03;;;;;;;6.13;1.67;;;;;;;;;;5036508;28;20050;-82
2021/10/01 00:14:30;;;;;;;6.28;1.25;;;;;;;;;;5017923;28;20061;-82
2021/10/01 00:16:56;;;;;;;8.05;1.75;;;;;;;;;;5049107;28;20033;-82
2021/10/01 00:19:24;;;;;;;6.72;1.55;;;;;;;;;;5026908;28;20062;-82
2021/10/01 00:21:50;;;;;;;5.63;1.80;;;;;;;;;;5034328;28;20064;-82
2021/10/01 00:24:17;;;;;;;10.48;1.83;;;;;;;;;;5039890;28;20046;-82
2021/10/01 00:26:44;;;;;;;10.20;2.03;;;;;;;;;;5039064;28;20342;-82
2021/10/01 00:29:11;;;;;;;8.98;2.13;;;;;;;;;;5031941;28;20050;-82
2021/10/01 00:31:38;;;;;;;8.90;2.40;;;;;;;;;;5033522;28;20061;-83
2021/10/01 00:34:08;;;;;;;16.83;2.63;;;;;;;;;;5016752;28;20050;-82
2021/10/01 00:36:34;;;;;;;8.27;1.38;;;;;;;;;;5034237;28;20058;-82
2021/10/01 00:39:02;;;;;;;11.23;2.00;;;;;;;;;;5018185;28;20045;-82
2021/10/01 00:41:30;;;;;;;6.82;2.45;;;;;;;;;;5017338;28;20054;-82
2021/10/01 00:43:57;;;;;;;8.05;1.42;;;;;;;;;;5017361;28;20057;-82
2021/10/01 00:46:23;;;;;;;10.23;1.70;;;;;;;;;;5032715;28;20309;-82
2021/10/01 00:48:50;;;;;;;10.68;1.95;;;;;;;;;;5015781;28;20056;-82
2021/10/01 00:51:18;;;;;;;12.32;1.83;;;;;;;;;;5017250;28;20045;-82
2021/10/01 00:53:45;;;;;;;11.82;2.03;;;;;;;;;;5017046;28;20379;-82
2021/10/01 00:56:11;;;;;;;9.23;1.85;;;;;;;;;;5016877;28;20545;-82
2021/10/01 00:58:38;;;;;;;6.38;1.52;;;;;;;;;;5018071;28;20049;-82
2021/10/01 01:01:10;;;;;;;6.55;1.67;;;;;;;;;;5017164;28;20104;-82
2021/10/01 01:03:44;;;;;;;6.85;1.38;;;;;;;;;;5016466;28;20132;-82
2021/10/01 01:06:30;;;;;;;4.55;1.00;;;;;;;;;;5014540;28;20042;-82
2021/10/01 01:08:57;;;;;;;7.82;1.60;;;;;;;;;;5017648;28;20111;-82
2021/10/01 01:11:31;;;;;;;7.82;1.73;;;;;;;;;;5017982;28;20053;-82
2021/10/01 01:14:07;;;;;;;14.23;1.98;;;;;;;;;;5033966;28;20080;-82
2021/10/01 01:16:35;;;;;;;11.85;2.33;;;;;;;;;;5017741;28;20516;-82
2021/10/01 01:19:07;;;;;;;9.90;2.47;;;;;;;;;;5034301;28;20045;-82
2021/10/01 01:21:40;;;;;;;9.98;2.20;;;;;;;;;;5019021;28;20359;-83
2021/10/01 01:24:18;;;;;;;9.95;1.95;;;;;;;;;;5019562;28;20057;-83
2021/10/01 01:27:24;;;;;;;9.18;2.22;;;;;;;;;;5030304;28;20064;-82
2021/10/01 01:29:50;;;;;;;5.90;1.52;;;;;;;;;;4997365;28;20051;-82
2021/10/01 01:32:20;;;;;;;10.57;2.05;;;;;;;;;;4995287;28;20035;-82
2021/10/01 01:34:49;;;;;;;16.58;2.03;;;;;;;;;;5017910;28;20060;-84
2021/10/01 01:37:19;;;;;;;8.25;1.60;;;;;;;;;;5044947;28;20158;-83
2021/10/01 01:39:47;;;;;;;8.80;2.00;;;;;;;;;;5066886;28;20053;-83
2021/10/01 01:42:15;;;;;;;19.13;2.47;;;;;;;;;;5049276;28;20057;-83
2021/10/01 01:44:42;;;;;;;11.90;2.10;;;;;;;;;;5042945;28;20049;-83
2021/10/01 01:47:09;;;;;;;13.63;2.25;;;;;;;;;;5056697;28;20053;-84
2021/10/01 01:49:39;;;;;;;11.38;2.03;;;;;;;;;;5041113;28;20417;-83
2021/10/01 01:52:06;;;;;;;8.68;2.05;;;;;;;;;;5040786;28;20064;-83
2021/10/01 01:54:33;;;;;;;9.13;2.67;;;;;;;;;;5043753;28;20056;-83
2021/10/01 01:57:01;;;;;;;11.85;2.15;;;;;;;;;;5041602;28;20068;-81
2021/10/01 01:59:28;;;;;;;9.75;2.20;;;;;;;;;;5044093;28;20080;-82
2021/10/01 02:01:56;;;;;;;11.82;2.17;;;;;;;;;;5056501;28;20049;-81
2021/10/01 02:04:23;;;;;;;11.55;2.65;;;;;;;;;;5054869;28;20084;-82
2021/10/01 02:06:50;;;;;;;9.50;2.03;;;;;;;;;;5051783;28;20429;-82
2021/10/01 02:09:17;;;;;;;10.40;2.42;;;;;;;;;;5045523;28;20076;-82
2021/10/01 02:11:44;;;;;;;11.20;2.00;;;;;;;;;;5043148;28;20049;-81
2021/10/01 02:14:18;;;;;;;6.47;2.10;;;;;;;;;;5042786;28;20057;-82
2021/10/01 02:16:45;;;;;;;5.95;1.75;;;;;;;;;;5044716;28;20367;-82
2021/10/01 02:19:13;;;;;;;10.10;2.22;;;;;;;;;;5043062;28;20407;-82
2021/10/01 02:21:40;;;;;;;7.55;1.55;;;;;;;;;;5044911;28;20064;-81
2021/10/01 02:24:07;;;;;;;9.35;1.88;;;;;;;;;;5045969;28;20041;-82
2021/10/01 02:26:42;;;;;;;7.53;1.67;;;;;;;;;;5044811;28;20052;-82
2021/10/01 02:29:25;;;;;;;7.35;1.90;;;;;;;;;;5045022;28;20050;-83
2021/10/01 02:32:04;;;;;;;7.22;1.67;;;;;;;;;;5047523;28;20048;-83
2021/10/01 02:34:32;;;;;;;13.05;2.92;;;;;;;;;;5053466;28;20053;-83
2021/10/01 02:37:07;;;;;;;5.30;1.50;;;;;;;;;;5046568;28;20057;-83
2021/10/01 02:39:35;;;;;;;10.15;2.25;;;;;;;;;;5041123;28;20053;-82
2021/10/01 02:42:02;;;;;;;9.25;1.88;;;;;;;;;;5041070;28;20072;-83
2021/10/01 02:44:29;;;;;;;10.50;1.83;;;;;;;;;;5041720;28;20325;-82
2021/10/01 02:46:55;;;;;;;12.95;2.08;;;;;;;;;;5041997;28;20072;-84
2021/10/01 02:49:22;;;;;;;10.30;2.03;;;;;;;;;;5041213;28;20067;-82
2021/10/01 02:51:50;;;;;;;6.03;1.65;;;;;;;;;;5040121;28;20314;-82
2021/10/01 02:54:18;;;;;;;5.93;1.50;;;;;;;;;;5039900;28;20049;-82
2021/10/01 02:56:47;;;;;;;5.32;1.27;;;;;;;;;;5040642;28;20071;-82
2021/10/01 02:59:15;;;;;;;7.22;1.73;;;;;;;;;;5041634;28;20057;-82
2021/10/01 03:01:43;;;;;;;6.47;1.92;;;;;;;;;;5039087;28;20076;-82
2021/10/01 03:04:13;;;;;;;10.20;1.80;;;;;;;;;;5039976;28;20108;-82
2021/10/01 03:06:42;;;;;;;7.97;1.75;;;;;;;;;;5039917;28;20065;-82
2021/10/01 03:09:09;;;;;;;5.82;1.48;;;;;;;;;;5040365;28;20053;-82
2021/10/01 03:11:37;;;;;;;10.82;1.92;;;;;;;;;;5039021;28;20057;-82
2021/10/01 03:14:04;;;;;;;3.33;1.08;;;;;;;;;;5039182;28;20054;-82
2021/10/01 03:16:32;;;;;;;12.73;2.22;;;;;;;;;;5039766;28;20180;-82
2021/10/01 03:19:03;;;;;;;6.70;1.77;;;;;;;;;;5039724;28;20140;-82
2021/10/01 03:21:30;;;;;;;6.47;1.23;;;;;;;;;;5039114;28;20387;-82
2021/10/01 03:23:57;;;;;;;7.13;1.88;;;;;;;;;;5036888;28;20060;-82
2021/10/01 03:26:24;;;;;;;5.60;1.50;;;;;;;;;;5039655;28;20049;-82
2021/10/01 03:28:51;;;;;;;6.75;1.63;;;;;;;;;;5052100;28;20045;-82
2021/10/01 03:31:18;;;;;;;6.25;1.60;;;;;;;;;;5055274;28;20037;-82
2021/10/01 03:33:45;;;;;;;11.80;1.98;;;;;;;;;;5047814;28;20068;-83
2021/10/01 03:36:15;;;;;;;6.40;1.75;;;;;;;;;;5040312;28;20432;-82
2021/10/01 03:38:44;;;;;;;6.65;1.65;;;;;;;;;;5040873;28;20065;-82
2021/10/01 03:41:11;;;;;;;13.23;2.40;;;;;;;;;;5050496;28;20083;-84
2021/10/01 03:43:40;;;;;;;7.45;1.65;;;;;;;;;;5051968;28;20041;-83
2021/10/01 03:46:07;;;;;;;11.82;1.55;;;;;;;;;;5040670;28;20056;-82
2021/10/01 03:48:34;;;;;;;10.25;1.80;;;;;;;;;;5054830;28;20256;-82
2021/10/01 03:51:01;;;;;;;8.65;1.85;;;;;;;;;;5055666;28;20045;-83
2021/10/01 03:53:27;;;;;;;8.32;2.20;;;;;;;;;;5038066;28;20057;-83
2021/10/01 03:55:54;;;;;;;7.80;1.88;;;;;;;;;;5039838;28;20049;-83
2021/10/01 03:58:20;;;;;;;9.98;2.00;;;;;;;;;;5037977;28;20360;-83
2021/10/01 04:00:47;;;;;;;4.57;1.85;;;;;;;;;;5036554;28;20168;-83
2021/10/01 04:03:14;;;;;;;7.32;1.55;;;;;;;;;;5052064;28;20049;-83
2021/10/01 04:05:41;;;;;;;11.98;2.42;;;;;;;;;;5035817;28;20425;-83
2021/10/01 04:08:08;;;;;;;6.68;1.83;;;;;;;;;;5036731;28;20145;-83
2021/10/01 04:10:35;;;;;;;6.07;1.42;;;;;;;;;;5034686;28;20068;-83
2021/10/01 04:13:03;;;;;;;8.60;1.88;;;;;;;;;;5034214;28;20053;-82
2021/10/01 04:15:29;;;;;;;6.97;1.75;;;;;;;;;;5050524;28;20057;-82
2021/10/01 04:17:56;;;;;;;9.02;1.95;;;;;;;;;;5037172;28;20085;-82
2021/10/01 04:20:22;;;;;;;8.25;2.17;;;;;;;;;;5035229;28;20052;-83
2021/10/01 04:22:49;;;;;;;7.15;1.67;;;;;;;;;;5049549;28;20053;-83
2021/10/01 04:25:16;;;;;;;15.75;2.40;;;;;;;;;;5050186;28;20111;-83
2021/10/01 04:27:46;;;;;;;7.15;2.25;;;;;;;;;;5049772;28;20041;-83
2021/10/01 04:30:12;;;;;;;10.10;2.05;;;;;;;;;;5034166;28;20041;-83
2021/10/01 04:32:45;;;;;;;10.57;1.83;;;;;;;;;;5033881;28;20368;-83
2021/10/01 04:35:11;;;;;;;7.40;1.33;;;;;;;;;;5052150;28;20045;-83
2021/10/01 04:37:38;;;;;;;11.38;2.00;;;;;;;;;;5034738;28;20356;-83
2021/10/01 04:40:05;;;;;;;12.02;2.30;;;;;;;;;;5034492;28;20069;-83
2021/10/01 04:42:31;;;;;;;8.13;2.00;;;;;;;;;;5031741;28;20103;-83
2021/10/01 04:44:58;;;;;;;10.55;1.63;;;;;;;;;;5028732;28;20049;-83
2021/10/01 04:47:24;;;;;;;15.15;2.30;;;;;;;;;;5031801;28;20092;-83
2021/10/01 04:49:53;;;;;;;7.53;1.42;;;;;;;;;;5028932;28;20049;-83
2021/10/01 04:52:20;;;;;;;11.35;1.90;;;;;;;;;;5031339;28;20049;-83
2021/10/01 04:54:47;;;;;;;13.90;1.73;;;;;;;;;;5028304;28;20045;-83
2021/10/01 04:57:13;;;;;;;7.03;1.58;;;;;;;;;;5028088;28;20046;-84
2021/10/01 04:59:40;;;;;;;8.70;1.88;;;;;;;;;;5031583;28;20056;-83
2021/10/01 05:02:19;;;;;;;11.60;2.28;;;;;;;;;;5029080;28;20307;-84
2021/10/01 05:04:46;;;;;;;5.30;1.17;;;;;;;;;;5031758;28;20049;-83
2021/10/01 05:07:13;;;;;;;6.68;1.48;;;;;;;;;;5028637;28;20045;-83
2021/10/01 05:09:40;;;;;;;6.05;1.52;;;;;;;;;;5033251;28;20049;-84
2021/10/01 05:12:07;;;;;;;9.30;1.60;;;;;;;;;;5029848;28;20429;-83
2021/10/01 05:14:33;;;;;;;8.05;2.28;;;;;;;;;;5035906;28;20302;-82
2021/10/01 05:17:00;;;;;;;10.27;2.25;;;;;;;;;;5027995;28;20042;-83
2021/10/01 05:19:26;;;;;;;9.75;2.13;;;;;;;;;;5027995;28;20346;-84
2021/10/01 05:21:53;;;;;;;11.48;1.90;;;;;;;;;;5028563;28;20057;-84
2021/10/01 05:24:24;;;;;;;8.20;1.73;;;;;;;;;;5030903;28;20148;-84
2021/10/01 05:26:50;;;;;;;11.75;2.72;;;;;;;;;;5027072;28;20356;-82
2021/10/01 05:29:19;;;;;;;19.30;2.20;;;;;;;;;;5030914;28;20225;-83
2021/10/01 05:31:49;;;;;;;12.32;2.13;;;;;;;;;;5041821;28;20054;-84
2021/10/01 05:34:18;;;;;;;12.40;2.15;;;;;;;;;;5038036;28;20109;-83
2021/10/01 05:36:45;;;;;;;15.95;2.72;;;;;;;;;;5032380;28;20241;-83
2021/10/01 05:39:18;;;;;;;13.05;2.30;;;;;;;;;;5023560;28;20045;-83
2021/10/01 05:41:44;;;;;;;9.93;2.00;;;;;;;;;;5020449;28;20105;-83
2021/10/01 05:44:11;;;;;;;15.95;2.88;;;;;;;;;;5018961;28;20060;-83
2021/10/01 05:46:43;;;;;;;14.15;2.88;;;;;;;;;;5019444;28;20561;-82
2021/10/01 05:49:14;;;;;;;10.23;1.98;;;;;;;;;;5026064;28;20046;-83
2021/10/01 05:51:47;;;;;;;15.52;2.40;;;;;;;;;;5022873;28;20053;-83
2021/10/01 05:54:21;;;;;;;10.18;2.38;;;;;;;;;;5019916;28;20053;-83
2021/10/01 05:56:49;;;;;;;13.43;2.42;;;;;;;;;;5016198;28;20199;-83
2021/10/01 05:59:16;;;;;;;14.10;1.80;;;;;;;;;;5009214;28;20060;-83
2021/10/01 06:01:42;;;;;;;11.45;2.17;;;;;;;;;;5025771;28;20065;-84
2021/10/01 06:04:19;;;;;;;9.13;2.42;;;;;;;;;;5011031;28;20043;-84
2021/10/01 06:06:45;;;;;;;6.53;1.85;;;;;;;;;;5013397;28;20133;-85
2021/10/01 06:09:14;;;;;;;5.97;1.75;;;;;;;;;;5009434;28;20046;-83
2021/10/01 06:11:41;;;;;;;10.18;2.30;;;;;;;;;;5007562;28;20046;-83
2021/10/01 06:14:08;;;;;;;11.25;1.92;;;;;;;;;;5012688;28;20311;-83
2021/10/01 06:16:35;;;;;;;7.65;1.95;;;;;;;;;;5022000;28;20176;-83
2021/10/01 06:19:03;;;;;;;9.82;1.98;;;;;;;;;;5034419;28;20100;-83
2021/10/01 06:21:29;;;;;;;11.63;2.35;;;;;;;;;;5030450;28;20222;-83
2021/10/01 06:23:56;;;;;;;11.90;2.60;;;;;;;;;;5031788;28;20051;-82
2021/10/01 06:26:23;;;;;;;5.68;1.63;;;;;;;;;;5012198;28;20115;-83
2021/10/01 06:28:53;;;;;;;7.90;1.90;;;;;;;;;;5014500;28;20084;-82
2021/10/01 06:31:20;;;;;;;7.72;1.73;;;;;;;;;;5014272;28;20428;-83
2021/10/01 06:33:48;;;;;;;6.82;1.67;;;;;;;;;;5018430;28;20049;-83
2021/10/01 06:36:19;;;;;;;8.45;1.67;;;;;;;;;;5033771;28;20561;-84
2021/10/01 06:38:46;;;;;;;11.85;2.22;;;;;;;;;;5032378;28;20092;-82
2021/10/01 06:41:13;;;;;;;7.50;1.60;;;;;;;;;;5034655;28;20056;-83
2021/10/01 06:43:42;;;;;;;6.20;1.30;;;;;;;;;;5032201;28;20060;-83
2021/10/01 06:46:20;;;;;;;6.50;2.20;;;;;;;;;;5033147;28;20292;-82
2021/10/01 07:22:41;;;;;;;5.00;1.30;;;;;;;;;;5005712;28;20498;-83
2021/10/01 07:39:20;;;;;;;7.00;1.42;;;;;;;;;;5029199;28;20045;-82
2021/10/01 08:20:57;;;;;;;5.90;1.00;;;;;;;;;;5009187;28;20068;-83
2021/10/01 08:23:26;;;;;;;5.85;1.20;;;;;;;;;;5023676;28;20489;-83
2021/10/01 08:25:53;;;;;;;6.10;1.35;;;;;;;;;;5011115;28;20045;-83
2021/10/01 08:28:24;;;;;;;10.98;1.65;;;;;;;;;;5024852;28;20038;-83
2021/10/01 08:30:51;;;;;;;3.85;1.30;;;;;;;;;;5043017;28;20138;-83
2021/10/01 08:33:17;;;;;;;7.90;1.17;;;;;;;;;;5034282;28;20233;-82
2021/10/01 08:35:44;;;;;;;4.88;0.98;;;;;;;;;;5008398;28;20053;-83
2021/10/01 08:38:17;;;;;;;6.97;1.60;;;;;;;;;;5016915;28;20052;-82
2021/10/01 08:40:44;;;;;;;5.75;1.65;;;;;;;;;;5026942;28;20380;-83
2021/10/01 08:43:11;;;;;;;7.07;1.30;;;;;;;;;;5025388;28;20298;-83
2021/10/01 08:45:38;;;;;;;8.68;1.30;;;;;;;;;;5025286;28;20219;-83
2021/10/01 08:48:05;;;;;;;4.60;1.02;;;;;;;;;;5040126;28;20041;-82
2021/10/01 08:50:32;;;;;;;6.68;1.17;;;;;;;;;;5040711;28;20057;-82
2021/10/01 08:53:03;;;;;;;7.07;1.08;;;;;;;;;;5021314;28;20153;-83
2021/10/01 08:55:30;;;;;;;5.80;1.13;;;;;;;;;;5021533;28;20045;-83
2021/10/01 08:58:20;;;;;;;7.85;1.08;;;;;;;;;;5022778;28;20412;-83
2021/10/01 09:00:49;;;;;;;4.82;1.30;;;;;;;;;;5023161;28;20052;-83
2021/10/01 09:03:17;;;;;;;5.55;1.00;;;;;;;;;;5023954;28;20057;-83
2021/10/01 09:05:44;;;;;;;2.95;0.90;;;;;;;;;;5030931;28;20060;-84
2021/10/01 09:08:25;;;;;;;4.97;1.15;;;;;;;;;;5024501;28;20049;-84
2021/10/01 09:11:06;;;;;;;5.38;1.20;;;;;;;;;;5023983;28;20045;-84
2021/10/01 09:13:34;;;;;;;5.30;1.05;;;;;;;;;;5021852;28;20313;-84
2021/10/01 09:16:02;;;;;;;5.07;1.33;;;;;;;;;;5024118;28;20050;-83
2021/10/01 09:18:30;;;;;;;5.85;1.00;;;;;;;;;;5025310;28;20064;-84
2021/10/01 09:21:06;;;;;;;5.25;0.93;;;;;;;;;;5026879;28;20061;-83
2021/10/01 09:23:40;;;;;;;5.28;1.02;;;;;;;;;;5024228;28;20049;-83
2021/10/01 09:26:16;;;;;;;5.85;1.27;;;;;;;;;;5022696;28;20167;-83
2021/10/01 09:28:45;;;;;;;8.18;1.08;;;;;;;;;;5021581;28;20049;-84
2021/10/01 09:31:28;;;;;;;5.60;1.00;;;;;;;;;;5020663;28;20568;-83
2021/10/01 09:34:05;;;;;;;2.97;0.77;;;;;;;;;;5023680;28;20419;-83
2021/10/01 09:36:32;;;;;;;3.13;0.90;;;;;;;;;;5017759;28;20054;-83
2021/10/01 09:38:59;;;;;;;4.90;1.00;;;;;;;;;;5010555;28;20084;-83
2021/10/01 09:41:30;;;;;;;3.95;0.90;;;;;;;;;;5020749;28;20662;-83
2021/10/01 09:44:08;;;;;;;2.65;0.93;;;;;;;;;;5022137;28;20056;-83
2021/10/01 09:46:37;;;;;;;5.95;1.23;;;;;;;;;;5005532;28;20559;-83
2021/10/01 09:49:04;;;;;;;6.38;1.20;;;;;;;;;;5009147;28;20427;-83
2021/10/01 09:51:30;;;;;;;3.90;0.90;;;;;;;;;;5010041;28;20244;-83
2021/10/01 09:53:58;;;;;;;6.53;1.17;;;;;;;;;;5009506;28;20202;-84
2021/10/01 09:56:30;;;;;;;3.35;1.00;;;;;;;;;;5017532;28;20103;-84
2021/10/01 09:59:15;;;;;;;4.10;1.67;;;;;;;;;;5025467;28;20172;-82
2021/10/01 10:02:02;;;;;;;2.90;0.93;;;;;;;;;;5014552;28;20113;-83
2021/10/01 10:04:54;;;;;;;4.93;0.85;;;;;;;;;;5034791;28;20168;-83
2021/10/01 10:07:23;;;;;;;2.13;0.88;;;;;;;;;;5034224;28;20088;-83
2021/10/01 10:09:57;;;;;;;4.50;0.85;;;;;;;;;;5028008;28;20046;-84
2021/10/01 10:12:32;;;;;;;5.47;1.55;;;;;;;;;;5039287;28;20058;-83
2021/10/01 10:15:00;;;;;;;9.05;1.55;;;;;;;;;;5038077;28;20045;-83
2021/10/01 10:17:28;;;;;;;7.60;1.52;;;;;;;;;;5045072;28;20245;-84
2021/10/01 10:19:56;;;;;;;7.07;1.45;;;;;;;;;;5043088;28;20110;-84
2021/10/01 10:22:37;;;;;;;7.47;1.20;;;;;;;;;;5032213;28;20140;-83
2021/10/01 10:25:04;;;;;;;3.67;1.45;;;;;;;;;;5044135;28;20228;-84
2021/10/01 10:27:31;;;;;;;5.95;1.38;;;;;;;;;;5036971;28;20320;-83
2021/10/01 10:30:09;;;;;;;6.63;1.10;;;;;;;;;;5028700;28;20230;-83
2021/10/01 10:32:35;;;;;;;6.22;0.98;;;;;;;;;;5030660;28;20060;-83
2021/10/01 10:35:04;;;;;;;6.00;1.02;;;;;;;;;;5012363;28;20230;-83
2021/10/01 10:37:54;;;;;;;2.60;0.82;;;;;;;;;;5011201;28;20058;-83
2021/10/01 10:40:21;;;;;;;3.85;0.90;;;;;;;;;;5015063;28;20211;-83
2021/10/01 10:42:49;;;;;;;3.83;1.17;;;;;;;;;;5031092;28;20122;-83
2021/10/01 10:45:17;;;;;;;4.90;1.00;;;;;;;;;;5039796;28;20184;-83
2021/10/01 10:47:51;;;;;;;8.45;1.17;;;;;;;;;;5040541;28;20149;-84
2021/10/01 10:50:21;;;;;;;6.72;0.93;;;;;;;;;;5037078;28;20060;-83
2021/10/01 10:55:34;;;;;;;8.57;0.90;;;;;;;;;;5026189;28;20096;-84
2021/10/01 10:58:32;;;;;;;9.00;1.20;;;;;;;;;;5024497;28;20216;-84
2021/10/01 11:01:23;;;;;;;4.35;1.33;;;;;;;;;;5026814;28;20057;-84
2021/10/01 11:03:52;;;;;;;5.38;1.20;;;;;;;;;;5027300;28;20345;-84
2021/10/01 11:06:18;;;;;;;9.68;1.42;;;;;;;;;;5024380;28;20135;-84
2021/10/01 11:08:45;;;;;;;5.85;1.17;;;;;;;;;;5032929;28;20116;-83
2021/10/01 11:11:33;;;;;;;8.32;1.17;;;;;;;;;;5027134;28;20045;-83
2021/10/01 11:14:15;;;;;;;4.05;1.20;;;;;;;;;;5025579;28;20049;-84
2021/10/01 11:16:43;;;;;;;7.60;1.08;;;;;;;;;;5024155;28;20199;-83
2021/10/01 11:19:10;;;;;;;8.68;1.30;;;;;;;;;;5023831;28;20132;-83
2021/10/01 11:21:42;;;;;;;7.75;1.25;;;;;;;;;;5030608;28;20357;-81
2021/10/01 11:24:17;;;;;;;6.75;1.13;;;;;;;;;;5009545;28;20242;-84
2021/10/01 11:26:47;;;;;;;4.93;1.10;;;;;;;;;;5032806;28;20053;-85
2021/10/01 11:29:27;;;;;;;7.28;1.20;;;;;;;;;;5039180;28;20145;-84
2021/10/01 11:31:58;;;;;;;6.25;1.00;;;;;;;;;;5032685;28;20053;-85
2021/10/01 11:34:43;;;;;;;5.40;1.10;;;;;;;;;;5022673;28;20198;-85
2021/10/01 11:37:20;;;;;;;7.63;0.90;;;;;;;;;;5024805;28;20112;-84
2021/10/01 11:39:47;;;;;;;7.82;1.63;;;;;;;;;;5024525;28;20810;-85
2021/10/01 11:42:40;;;;;;;7.63;1.20;;;;;;;;;;5025468;28;20053;-85
2021/10/01 11:45:12;;;;;;;5.70;1.20;;;;;;;;;;5026875;28;20109;-84
2021/10/01 11:47:58;;;;;;;5.20;1.15;;;;;;;;;;5034669;28;20199;-84
2021/10/01 11:50:37;;;;;;;4.82;1.35;;;;;;;;;;5035132;28;20124;-83
2021/10/01 11:53:05;;;;;;;9.13;1.30;;;;;;;;;;5034604;28;20247;-84
2021/10/01 11:55:36;;;;;;;2.25;1.02;;;;;;;;;;5028047;28;20124;-85
2021/10/01 11:58:13;;;;;;;6.35;1.40;;;;;;;;;;5022190;28;20049;-85
2021/10/01 12:00:40;;;;;;;2.88;1.00;;;;;;;;;;5022512;28;20060;-84
2021/10/01 12:03:11;;;;;;;5.82;1.30;;;;;;;;;;5026951;28;20079;-83
2021/10/01 12:05:38;;;;;;;10.15;1.17;;;;;;;;;;5046153;28;20236;-84
2021/10/01 12:08:06;;;;;;;5.60;0.95;;;;;;;;;;5027114;28;20294;-82
2021/10/01 12:10:41;;;;;;;6.63;1.02;;;;;;;;;;5028343;28;20072;-83
2021/10/01 12:13:28;;;;;;;7.65;1.27;;;;;;;;;;5005016;28;20049;-84
2021/10/01 12:16:10;;;;;;;4.80;1.15;;;;;;;;;;5007599;28;20284;-83
2021/10/01 12:18:41;;;;;;;6.18;1.20;;;;;;;;;;5013371;28;20111;-84
2021/10/01 12:21:11;;;;;;;2.95;0.98;;;;;;;;;;5025674;28;20061;-84
2021/10/01 12:23:44;;;;;;;3.22;1.05;;;;;;;;;;5022841;28;20056;-83
2021/10/01 12:26:31;;;;;;;5.32;1.02;;;;;;;;;;5031647;28;20303;-83
2021/10/01 12:29:01;;;;;;;;;;;;;;;;;;5032549;28;20052;-83
2021/10/01 12:31:29;;;;;;;11.98;1.50;;;;;;;;;;5028051;28;20023;-83
2021/10/01 12:34:00;;;;;;;5.13;0.88;;;;;;;;;;5022900;28;20196;-83
2021/10/01 12:36:28;;;;;;;4.00;0.80;;;;;;;;;;5025907;28;20058;-84
2021/10/01 12:38:56;;;;;;;6.70;1.80;;;;;;;;;;5026424;28;20045;-83
2021/10/01 12:41:23;;;;;;;7.70;1.25;;;;;;;;;;5028167;28;20103;-83
2021/10/01 12:43:57;;;;;;;8.18;1.10;;;;;;;;;;5027911;28;20063;-84
2021/10/01 12:46:41;;;;;;;3.45;0.77;;;;;;;;;;5029292;28;20049;-84
2021/10/01 12:49:19;;;;;;;4.25;1.08;;;;;;;;;;5028002;28;20402;-83
2021/10/01 12:52:05;;;;;;;9.25;1.27;;;;;;;;;;5026939;28;20056;-84
2021/10/01 12:54:34;;;;;;;4.85;0.95;;;;;;;;;;5029502;28;20084;-85
2021/10/01 12:57:14;;;;;;;9.10;1.10;;;;;;;;;;5027215;28;20317;-83
2021/10/01 12:59:49;;;;;;;7.75;0.90;;;;;;;;;;5022876;28;20117;-83
2021/10/01 13:02:15;;;;;;;5.80;0.90;;;;;;;;;;5034265;28;20021;-85
2021/10/01 13:05:08;;;;;;;5.63;0.88;;;;;;;;;;5027721;28;20499;-85
2021/10/01 13:07:42;;;;;;;4.63;0.98;;;;;;;;;;5035123;28;20056;-84
2021/10/01 13:10:18;;;;;;;11.60;1.83;;;;;;;;;;5030831;28;20368;-84
2021/10/01 13:12:50;;;;;;;8.93;1.85;;;;;;;;;;5031425;28;20045;-84
2021/10/01 13:15:27;;;;;;;7.80;1.55;;;;;;;;;;5028000;28;20337;-83
2021/10/01 13:18:08;;;;;;;4.28;1.10;;;;;;;;;;5026848;28;20184;-83
2021/10/01 13:20:39;;;;;;;12.70;1.50;;;;;;;;;;5025122;28;20066;-83
2021/10/01 13:23:13;;;;;;;7.80;1.17;;;;;;;;;;5018474;28;20099;-83
2021/10/01 13:25:48;;;;;;;6.43;1.05;;;;;;;;;;5016945;28;20221;-83
2021/10/01 13:28:15;;;;;;;9.95;1.30;;;;;;;;;;5018177;28;20068;-85
2021/10/01 13:30:42;;;;;;;8.70;1.25;;;;;;;;;;5022903;28;20050;-83
2021/10/01 13:33:13;;;;;;;8.77;1.38;;;;;;;;;;5020648;28;20046;-84
2021/10/01 13:35:40;;;;;;;8.40;1.92;;;;;;;;;;5031325;28;20105;-84
2021/10/01 13:38:08;;;;;;;6.03;1.50;;;;;;;;;;5038523;28;20096;-84
2021/10/01 13:40:36;;;;;;;4.95;1.10;;;;;;;;;;5036637;28;20053;-84
2021/10/01 13:43:05;;;;;;;4.45;1.25;;;;;;;;;;5027384;28;20060;-84
2021/10/01 13:45:35;;;;;;;3.28;1.13;;;;;;;;;;5014085;28;20045;-84
2021/10/01 13:48:01;;;;;;;6.10;1.02;;;;;;;;;;5038862;28;20053;-84
2021/10/01 13:50:28;;;;;;;5.95;1.55;;;;;;;;;;5040522;28;20056;-83
2021/10/01 13:52:55;;;;;;;6.97;1.60;;;;;;;;;;5026685;28;20057;-83
2021/10/01 13:55:21;;;;;;;12.55;1.63;;;;;;;;;;5016990;28;20121;-83
2021/10/01 13:57:51;;;;;;;8.88;1.75;;;;;;;;;;5027820;28;20049;-84
2021/10/01 14:00:19;;;;;;;8.75;1.38;;;;;;;;;;5030030;28;20049;-82
2021/10/01 14:02:46;;;;;;;4.30;1.67;;;;;;;;;;5025026;28;20578;-83
2021/10/01 14:05:14;;;;;;;6.65;1.55;;;;;;;;;;5034494;28;20077;-83
2021/10/01 14:07:40;;;;;;;6.78;1.33;;;;;;;;;;5014142;28;20354;-83
2021/10/01 14:10:11;;;;;;;6.30;1.67;;;;;;;;;;5014409;28;20169;-83
2021/10/01 14:12:38;;;;;;;9.48;1.25;;;;;;;;;;5017368;28;20052;-83
2021/10/01 14:15:07;;;;;;;9.55;1.35;;;;;;;;;;5015752;28;20320;-82
2021/10/01 14:17:33;;;;;;;5.63;0.82;;;;;;;;;;5007497;28;20056;-84
2021/10/01 14:20:00;;;;;;;6.50;0.88;;;;;;;;;;5006496;28;20316;-86
2021/10/01 14:22:27;;;;;;;4.10;0.70;;;;;;;;;;5012709;28;20065;-82
2021/10/01 14:24:54;;;;;;;10.40;1.25;;;;;;;;;;5019269;28;20500;-82
2021/10/01 14:27:24;;;;;;;7.30;1.17;;;;;;;;;;5006158;28;20137;-83
2021/10/01 14:29:52;;;;;;;11.60;1.20;;;;;;;;;;5014111;28;20046;-82
2021/10/01 14:32:19;;;;;;;8.35;1.63;;;;;;;;;;5028964;28;20153;-82
2021/10/01 14:34:46;;;;;;;7.18;1.55;;;;;;;;;;5022514;28;20231;-82
2021/10/01 14:37:19;;;;;;;6.60;1.35;;;;;;;;;;5025909;28;20049;-83
2021/10/01 14:39:45;;;;;;;6.80;1.33;;;;;;;;;;5019883;28;20430;-83
2021/10/01 14:42:16;;;;;;;7.57;1.52;;;;;;;;;;5015410;28;20115;-82
2021/10/01 14:44:44;;;;;;;8.30;1.92;;;;;;;;;;5034571;28;20041;-82
2021/10/01 14:47:11;;;;;;;5.50;1.20;;;;;;;;;;5025162;28;20130;-82
2021/10/01 14:49:38;;;;;;;5.05;1.20;;;;;;;;;;5023458;28;20139;-82
2021/10/01 14:52:08;;;;;;;5.10;1.60;;;;;;;;;;5022020;28;20336;-82
2021/10/01 14:54:34;;;;;;;9.48;1.88;;;;;;;;;;5021056;28;20057;-84
2021/10/01 14:57:01;;;;;;;6.80;1.38;;;;;;;;;;5026233;28;20152;-83
2021/10/01 14:59:28;;;;;;;7.32;1.27;;;;;;;;;;5038748;28;20287;-84
2021/10/01 15:01:55;;;;;;;8.00;1.40;;;;;;;;;;5034975;28;20113;-84
2021/10/01 15:04:21;;;;;;;12.45;1.60;;;;;;;;;;5020421;28;20110;-84
2021/10/01 15:06:48;;;;;;;8.18;1.33;;;;;;;;;;5025050;28;20049;-84
2021/10/01 15:09:15;;;;;;;3.80;1.20;;;;;;;;;;5025924;28;20397;-84
2021/10/01 15:11:52;;;;;;;10.30;2.17;;;;;;;;;;5020410;28;20300;-84
2021/10/01 15:14:19;;;;;;;6.13;1.38;;;;;;;;;;5010935;28;20050;-84
2021/10/01 15:16:45;;;;;;;6.55;1.17;;;;;;;;;;5026544;28;20056;-84
2021/10/01 15:19:15;;;;;;;7.93;1.50;;;;;;;;;;5027107;28;20328;-84
2021/10/01 15:21:42;;;;;;;5.78;1.05;;;;;;;;;;5012590;28;20077;-84
2021/10/01 15:24:11;;;;;;;7.13;1.17;;;;;;;;;;5012224;28;20045;-84
2021/10/01 15:26:38;;;;;;;9.93;2.05;;;;;;;;;;5012835;28;20268;-84
2021/10/01 15:29:04;;;;;;;10.48;1.52;;;;;;;;;;5007377;28;20046;-83
2021/10/01 15:31:31;;;;;;;6.65;1.25;;;;;;;;;;5017368;28;20057;-84
2021/10/01 15:33:58;;;;;;;9.88;1.52;;;;;;;;;;5005697;28;20226;-84
2021/10/01 15:36:25;;;;;;;7.60;1.40;;;;;;;;;;5016177;28;20041;-83
2021/10/01 15:38:54;;;;;;;7.82;1.23;;;;;;;;;;5025865;28;20072;-83
2021/10/01 15:41:21;;;;;;;5.60;1.73;;;;;;;;;;5028076;28;20441;-82
2021/10/01 15:43:47;;;;;;;7.38;1.83;;;;;;;;;;5025631;28;20436;-84
2021/10/01 15:46:14;;;;;;;4.68;1.20;;;;;;;;;;5023182;28;20095;-84
2021/10/01 15:48:40;;;;;;;4.22;1.13;;;;;;;;;;5026208;28;20064;-84
2021/10/01 15:51:08;;;;;;;5.07;1.10;;;;;;;;;;5025707;28;20488;-84
2021/10/01 15:53:35;;;;;;;4.90;1.52;;;;;;;;;;5024079;28;20053;-83
2021/10/01 15:56:02;;;;;;;3.30;1.27;;;;;;;;;;5022555;28;20069;-83
2021/10/01 15:58:32;;;;;;;3.17;0.82;;;;;;;;;;5025977;28;20463;-83
2021/10/01 16:01:00;;;;;;;4.15;1.10;;;;;;;;;;5023827;28;20054;-83
2021/10/01 16:03:26;;;;;;;3.22;1.00;;;;;;;;;;5017126;28;20081;-84
2021/10/01 16:05:59;;;;;;;4.72;1.13;;;;;;;;;;5024854;28;20079;-83
2021/10/01 16:08:29;;;;;;;5.70;0.98;;;;;;;;;;5022114;28;20041;-83
2021/10/01 16:10:55;;;;;;;6.35;0.95;;;;;;;;;;5024738;28;20060;-84
2021/10/01 16:13:22;;;;;;;4.05;1.00;;;;;;;;;;5037742;28;20352;-84
2021/10/01 16:15:50;;;;;;;6.22;0.60;;;;;;;;;;5022798;28;20056;-85
2021/10/01 16:18:17;;;;;;;5.60;0.82;;;;;;;;;;5024578;28;20053;-83
2021/10/01 16:20:43;;;;;;;3.85;0.88;;;;;;;;;;5041033;28;20053;-83
2021/10/01 16:23:13;;;;;;;2.40;0.93;;;;;;;;;;5031939;28;20056;-83
2021/10/01 16:25:39;;;;;;;5.88;0.90;;;;;;;;;;5018067;28;20252;-82
2021/10/01 16:28:06;;;;;;;3.72;1.08;;;;;;;;;;5021726;28;20065;-83